Time;durP1;ratioP1;P1;durP2;ratioP2;P2;SDS_P1;SDS_P2;PMS_P1;PMS_P2;Temp;Humidity;BMP_temperature;BMP_pressure;BME280_temperature;BME280_humidity;BME280_pressure;Samples;Min_cycle;Max_cycle;Signal;HPM_P1;HPM_P2
2022/11/01 00:01:49;;;;;;;7.78;3.65;;;18.50;98.30;;;;;;5061960;28;20229;-75
2022/11/01 00:04:16;;;;;;;6.93;4.05;;;18.50;98.20;;;;;;5053217;28;20583;-75
2022/11/01 00:06:45;;;;;;;7.65;3.85;;;18.60;98.30;;;;;;5059975;28;20221;-75
2022/11/01 00:09:13;;;;;;;7.47;3.83;;;18.60;98.60;;;;;;5062782;28;20213;-75
2022/11/01 00:11:43;;;;;;;6.07;4.07;;;18.60;98.50;;;;;;5054733;28;20202;-75
2022/11/01 00:14:12;;;;;;;9.55;3.97;;;18.60;98.50;;;;;;5069407;28;20216;-75
2022/11/01 00:16:40;;;;;;;8.23;3.60;;;18.60;98.50;;;;;;5065696;28;20225;-75
2022/11/01 00:19:08;;;;;;;5.90;3.70;;;18.60;98.60;;;;;;5067785;28;20199;-75
2022/11/01 00:21:35;;;;;;;7.47;4.18;;;18.60;98.80;;;;;;5057088;28;20224;-75
2022/11/01 00:24:05;;;;;;;7.95;3.88;;;18.60;98.70;;;;;;5062390;28;20205;-75
2022/11/01 00:26:32;;;;;;;8.00;3.92;;;18.60;99.00;;;;;;5056953;28;20221;-75
2022/11/01 00:29:06;;;;;;;9.32;4.13;;;18.60;98.90;;;;;;5056752;28;20202;-75
2022/11/01 00:31:33;;;;;;;6.25;4.10;;;18.60;99.10;;;;;;5060306;28;20194;-75
2022/11/01 00:34:04;;;;;;;9.50;4.00;;;18.60;99.30;;;;;;5058793;28;20198;-75
2022/11/01 00:36:31;;;;;;;7.28;3.58;;;18.60;99.50;;;;;;5057077;28;20240;-75
2022/11/01 00:38:59;;;;;;;7.50;3.85;;;18.50;99.90;;;;;;5061745;28;20186;-75
2022/11/01 00:41:27;;;;;;;8.73;4.28;;;18.50;99.90;;;;;;5074227;28;20200;-75
2022/11/01 00:43:55;;;;;;;6.45;4.20;;;18.50;99.90;;;;;;5064375;28;20202;-75
2022/11/01 00:46:22;;;;;;;6.93;4.03;;;18.50;99.90;;;;;;5059642;28;20218;-75
2022/11/01 00:48:50;;;;;;;5.18;3.60;;;18.50;99.90;;;;;;5074650;28;20198;-75
2022/11/01 00:51:17;;;;;;;9.57;3.88;;;18.40;99.90;;;;;;5072422;28;20189;-75
2022/11/01 00:53:44;;;;;;;4.97;3.60;;;18.40;99.90;;;;;;5074681;28;20209;-75
2022/11/01 00:56:12;;;;;;;6.72;4.20;;;18.30;99.90;;;;;;5060396;28;20226;-75
2022/11/01 00:58:41;;;;;;;5.72;3.45;;;18.30;99.90;;;;;;5072692;28;20193;-75
2022/11/01 01:01:08;;;;;;;9.13;4.35;;;18.30;99.90;;;;;;5055904;28;20659;-75
2022/11/01 01:03:36;;;;;;;7.82;4.38;;;18.20;99.90;;;;;;5073850;28;20690;-75
2022/11/01 01:06:03;;;;;;;8.93;3.88;;;18.10;99.90;;;;;;5062237;28;20221;-75
2022/11/01 01:08:31;;;;;;;5.53;3.53;;;18.00;99.90;;;;;;5074342;28;20205;-75
2022/11/01 01:10:58;;;;;;;7.85;3.78;;;17.90;99.90;;;;;;5061377;28;20197;-75
2022/11/01 01:13:25;;;;;;;5.90;3.88;;;17.90;99.90;;;;;;5057582;28;20189;-75
2022/11/01 01:15:54;;;;;;;7.68;3.70;;;17.80;99.90;;;;;;5062963;28;20222;-75
2022/11/01 01:18:22;;;;;;;6.72;3.83;;;17.80;99.90;;;;;;5066549;28;20197;-75
2022/11/01 01:20:49;;;;;;;5.80;3.38;;;17.80;99.90;;;;;;5080816;28;20658;-75
2022/11/01 01:23:16;;;;;;;7.57;3.65;;;17.70;99.90;;;;;;5058366;28;20210;-75
2022/11/01 01:25:44;;;;;;;5.03;3.50;;;17.70;99.90;;;;;;5064379;28;20224;-75
2022/11/01 01:28:11;;;;;;;8.27;4.25;;;17.70;99.90;;;;;;5055395;28;20227;-75
2022/11/01 01:30:40;;;;;;;6.75;3.83;;;17.70;99.90;;;;;;5057942;28;20202;-75
2022/11/01 01:33:10;;;;;;;7.85;3.75;;;17.70;99.90;;;;;;5064266;28;20201;-75
2022/11/01 01:35:38;;;;;;;9.25;3.85;;;17.70;99.90;;;;;;5062233;28;20221;-75
2022/11/01 01:38:06;;;;;;;7.95;4.28;;;17.70;99.90;;;;;;5076760;28;20202;-76
2022/11/01 01:40:34;;;;;;;6.43;4.43;;;17.60;99.90;;;;;;5051065;28;20197;-75
2022/11/01 01:43:02;;;;;;;9.88;4.00;;;17.50;99.90;;;;;;5073597;28;20213;-75
2022/11/01 01:45:33;;;;;;;10.52;4.53;;;17.50;99.90;;;;;;5080036;28;20217;-75
2022/11/01 01:48:11;;;;;;;6.32;4.10;;;17.50;99.90;;;;;;5061174;28;20201;-75
2022/11/01 01:50:43;;;;;;;8.00;3.85;;;17.50;99.90;;;;;;5064913;28;20205;-75
2022/11/01 01:53:16;;;;;;;8.15;4.28;;;17.50;99.90;;;;;;5055137;28;20216;-75
2022/11/01 01:55:48;;;;;;;8.63;4.30;;;17.50;99.90;;;;;;5064350;28;20221;-75
2022/11/01 01:58:19;;;;;;;8.82;4.53;;;17.50;99.90;;;;;;5056425;28;20196;-75
2022/11/01 02:00:46;;;;;;;8.68;3.80;;;17.50;99.90;;;;;;5054436;28;20651;-75
2022/11/01 02:03:16;;;;;;;8.45;4.63;;;17.50;99.90;;;;;;5066779;28;20213;-75
2022/11/01 02:05:58;;;;;;;8.20;4.50;;;17.40;99.90;;;;;;5059463;28;20244;-75
2022/11/01 02:08:27;;;;;;;7.68;4.22;;;17.40;99.90;;;;;;5050549;28;20205;-75
2022/11/01 02:10:57;;;;;;;7.68;3.85;;;17.50;99.90;;;;;;5070988;28;20205;-75
2022/11/01 02:13:25;;;;;;;8.25;4.28;;;17.40;99.90;;;;;;5072447;28;20678;-75
2022/11/01 02:16:07;;;;;;;7.47;4.95;;;17.40;99.90;;;;;;5058872;28;20217;-75
2022/11/01 02:18:44;;;;;;;5.85;3.90;;;17.40;99.90;;;;;;5056243;28;20197;-75
2022/11/01 02:21:27;;;;;;;6.70;4.70;;;17.50;99.90;;;;;;5054678;28;20201;-77
2022/11/01 02:24:31;;;;;;;8.10;4.55;;;17.50;99.90;;;;;;5063923;28;20546;-75
2022/11/01 02:27:08;;;;;;;7.80;4.70;;;17.60;99.90;;;;;;5057229;28;20217;-75
2022/11/01 02:30:07;;;;;;;6.25;4.00;;;17.60;99.90;;;;;;5071596;28;20205;-75
2022/11/01 02:32:40;;;;;;;9.70;4.68;;;17.60;99.90;;;;;;5050459;28;20186;-75
2022/11/01 02:35:17;;;;;;;5.38;3.60;;;17.60;99.90;;;;;;5072700;28;20194;-75
2022/11/01 02:37:52;;;;;;;7.22;4.13;;;17.70;99.90;;;;;;5053904;28;20193;-75
2022/11/01 02:40:27;;;;;;;6.20;4.15;;;17.60;99.90;;;;;;5059144;28;20197;-75
2022/11/01 02:43:00;;;;;;;7.55;4.47;;;17.60;99.90;;;;;;5062763;28;20705;-75
2022/11/01 02:45:32;;;;;;;7.65;4.30;;;17.60;99.90;;;;;;5078676;28;20722;-75
2022/11/01 02:48:02;;;;;;;7.00;3.85;;;17.60;99.90;;;;;;5067299;28;20236;-75
2022/11/01 02:50:35;;;;;;;6.03;4.07;;;17.60;99.90;;;;;;5068191;28;20192;-75
2022/11/01 02:53:03;;;;;;;6.97;4.18;;;17.50;99.90;;;;;;5060153;28;20209;-75
2022/11/01 02:55:32;;;;;;;7.18;3.70;;;17.50;99.90;;;;;;5061641;28;20217;-75
2022/11/01 02:58:03;;;;;;;6.57;3.83;;;17.50;99.90;;;;;;5053380;28;20198;-75
2022/11/01 03:00:48;;;;;;;10.38;4.05;;;17.50;99.90;;;;;;5052387;28;20204;-75
2022/11/01 03:03:20;;;;;;;8.70;4.35;;;17.50;99.90;;;;;;5061854;28;20221;-75
2022/11/01 03:05:58;;;;;;;5.47;3.53;;;17.50;99.90;;;;;;5078586;28;20221;-75
2022/11/01 03:08:29;;;;;;;7.00;4.55;;;17.40;99.90;;;;;;5055615;28;20197;-75
2022/11/01 03:11:05;;;;;;;6.65;3.90;;;17.50;99.90;;;;;;5053300;28;20198;-75
2022/11/01 03:13:57;;;;;;;5.53;3.92;;;17.50;99.90;;;;;;5057821;28;20201;-75
2022/11/01 03:16:31;;;;;;;6.97;4.25;;;17.50;99.90;;;;;;5053710;28;20217;-75
2022/11/01 03:19:10;;;;;;;7.18;4.00;;;17.50;99.90;;;;;;5053766;28;20209;-75
2022/11/01 03:21:41;;;;;;;5.22;3.47;;;17.50;99.90;;;;;;5068592;28;20193;-75
2022/11/01 03:24:19;;;;;;;6.38;3.85;;;17.40;99.90;;;;;;5084560;28;20213;-75
2022/11/01 03:26:53;;;;;;;5.65;3.70;;;17.40;99.90;;;;;;5062824;28;20224;-75
2022/11/01 03:29:24;;;;;;;7.15;4.03;;;17.40;99.90;;;;;;5062486;28;20197;-76
2022/11/01 03:31:54;;;;;;;7.43;4.00;;;17.40;99.90;;;;;;5053353;28;20561;-75
2022/11/01 03:34:25;;;;;;;5.85;3.97;;;17.40;99.90;;;;;;5056134;28;20194;-75
2022/11/01 03:36:59;;;;;;;7.07;3.63;;;17.40;99.90;;;;;;5052226;28;20271;-76
2022/11/01 03:39:31;;;;;;;7.38;3.67;;;17.30;99.90;;;;;;5068077;28;20555;-76
2022/11/01 03:42:13;;;;;;;5.53;3.70;;;17.30;99.90;;;;;;5071042;28;20205;-76
2022/11/01 03:44:43;;;;;;;3.78;3.30;;;17.30;99.90;;;;;;5071589;28;20531;-76
2022/11/01 03:47:12;;;;;;;8.95;3.97;;;17.40;99.90;;;;;;5071928;28;20256;-76
2022/11/01 03:49:41;;;;;;;6.53;3.63;;;17.30;99.90;;;;;;5055854;28;20698;-76
2022/11/01 03:52:08;;;;;;;7.50;3.85;;;17.30;99.90;;;;;;5054384;28;20198;-76
2022/11/01 03:54:35;;;;;;;6.50;3.90;;;17.30;99.90;;;;;;5059714;28;20200;-76
2022/11/01 03:57:03;;;;;;;8.07;3.80;;;17.30;99.90;;;;;;5075717;28;20221;-76
2022/11/01 03:59:30;;;;;;;4.47;3.58;;;17.30;99.90;;;;;;5061547;28;20201;-76
2022/11/01 04:01:58;;;;;;;7.95;3.50;;;17.30;99.90;;;;;;5074288;28;20194;-75
2022/11/01 04:04:25;;;;;;;5.90;3.42;;;17.30;99.90;;;;;;5066221;28;20225;-76
2022/11/01 04:06:54;;;;;;;9.13;4.13;;;17.30;99.90;;;;;;5066134;28;20546;-76
2022/11/01 04:09:21;;;;;;;5.78;3.50;;;17.40;99.90;;;;;;5069577;28;20186;-76
2022/11/01 04:11:49;;;;;;;4.63;3.58;;;17.40;99.90;;;;;;5072214;28;20204;-76
2022/11/01 04:22:32;;;;;;;7.10;4.22;;;17.40;99.90;;;;;;5057246;28;20190;-76
2022/11/01 04:24:59;;;;;;;6.75;3.78;;;17.50;99.90;;;;;;5063871;28;20585;-76
2022/11/01 04:27:26;;;;;;;5.28;3.67;;;17.50;99.90;;;;;;5074964;28;20193;-76
2022/11/01 04:29:54;;;;;;;6.75;3.33;;;17.50;99.90;;;;;;5065479;28;20198;-76
2022/11/01 04:32:21;;;;;;;5.70;3.47;;;17.50;99.90;;;;;;5080654;28;20663;-75
2022/11/01 04:34:48;;;;;;;5.53;3.65;;;17.50;99.90;;;;;;5065842;28;20209;-76
2022/11/01 04:37:16;;;;;;;6.38;3.05;;;17.50;99.90;;;;;;5061978;28;20233;-76
2022/11/01 04:39:44;;;;;;;4.90;3.17;;;17.50;99.90;;;;;;5074971;28;20198;-76
2022/11/01 04:42:12;;;;;;;5.05;3.10;;;17.50;99.90;;;;;;5079509;28;20205;-76
2022/11/01 04:44:39;;;;;;;5.32;3.40;;;17.50;99.90;;;;;;5058046;28;20221;-76
2022/11/01 04:47:06;;;;;;;6.95;3.45;;;17.50;99.90;;;;;;5071949;28;20214;-76
2022/11/01 04:49:34;;;;;;;5.63;3.55;;;17.50;99.90;;;;;;5056172;28;20209;-76
2022/11/01 04:52:01;;;;;;;4.78;3.55;;;17.50;99.90;;;;;;5073355;28;20659;-76
2022/11/01 04:54:32;;;;;;;6.13;3.42;;;17.50;99.90;;;;;;5073738;28;20198;-76
2022/11/01 04:57:01;;;;;;;5.88;3.40;;;17.60;99.90;;;;;;5061885;28;20225;-76
2022/11/01 04:59:28;;;;;;;4.32;3.25;;;17.50;99.90;;;;;;5072939;28;20194;-76
2022/11/01 05:01:55;;;;;;;7.35;3.33;;;17.60;99.90;;;;;;5077832;28;20687;-80
2022/11/01 05:04:23;;;;;;;5.38;2.83;;;17.60;99.90;;;;;;5082248;28;20222;-80
2022/11/01 05:06:50;;;;;;;4.93;3.10;;;17.60;99.90;;;;;;5073718;28;20245;-80
2022/11/01 05:09:17;;;;;;;5.50;3.22;;;17.60;99.90;;;;;;5083701;28;20205;-79
2022/11/01 05:11:45;;;;;;;6.07;3.55;;;17.60;99.90;;;;;;5073839;28;20209;-79
2022/11/01 05:14:14;;;;;;;6.95;3.65;;;17.60;99.90;;;;;;5072255;28;20198;-80
2022/11/01 05:16:41;;;;;;;7.30;3.47;;;17.60;99.90;;;;;;5065808;28;20225;-80
2022/11/01 05:19:08;;;;;;;7.47;3.25;;;17.60;99.90;;;;;;5065357;28;20206;-80
2022/11/01 05:21:36;;;;;;;8.05;3.30;;;17.60;99.90;;;;;;5081218;28;20197;-80
2022/11/01 05:24:04;;;;;;;5.10;3.05;;;17.60;99.90;;;;;;5078349;28;20221;-80
2022/11/01 05:26:31;;;;;;;6.93;3.88;;;17.50;99.90;;;;;;5066502;28;20295;-80
2022/11/01 05:28:59;;;;;;;6.90;2.95;;;17.50;99.90;;;;;;5062306;28;20201;-80
2022/11/01 05:31:28;;;;;;;6.47;3.42;;;17.50;99.90;;;;;;5082110;28;20681;-80
2022/11/01 05:33:55;;;;;;;7.80;3.30;;;17.50;99.90;;;;;;5083579;28;20557;-80
2022/11/01 05:36:22;;;;;;;6.60;3.65;;;17.50;99.90;;;;;;5075682;28;20226;-80
2022/11/01 05:38:55;;;;;;;4.47;3.33;;;17.50;99.90;;;;;;5068476;28;20209;-80
2022/11/01 05:41:23;;;;;;;4.07;3.13;;;17.50;99.90;;;;;;5071431;28;20198;-80
2022/11/01 05:43:50;;;;;;;5.60;3.17;;;17.50;99.90;;;;;;5067493;28;20221;-81
2022/11/01 05:46:17;;;;;;;6.07;3.25;;;17.50;99.90;;;;;;5074819;28;20221;-81
2022/11/01 05:48:46;;;;;;;3.42;2.97;;;17.50;99.90;;;;;;5080862;28;20193;-80
2022/11/01 05:51:17;;;;;;;6.40;3.47;;;17.50;99.90;;;;;;5064502;28;20198;-80
2022/11/01 05:53:44;;;;;;;7.32;3.15;;;17.50;99.90;;;;;;5076634;28;20201;-80
2022/11/01 05:56:12;;;;;;;3.47;3.15;;;17.50;99.90;;;;;;5071666;28;20225;-80
2022/11/01 05:58:39;;;;;;;4.15;3.05;;;17.50;99.90;;;;;;5068071;28;20197;-80
2022/11/01 06:01:07;;;;;;;6.75;3.72;;;17.50;99.90;;;;;;5062923;28;20201;-80
2022/11/01 06:03:37;;;;;;;5.53;3.10;;;17.50;99.90;;;;;;5079581;28;20193;-80
2022/11/01 06:06:06;;;;;;;6.03;3.17;;;17.50;99.90;;;;;;5057347;28;20726;-80
2022/11/01 06:08:33;;;;;;;7.85;3.15;;;17.50;99.90;;;;;;5058468;28;20193;-80
2022/11/01 06:11:03;;;;;;;3.05;2.72;;;17.50;99.90;;;;;;5065054;28;20201;-80
2022/11/01 06:13:34;;;;;;;3.85;2.92;;;17.50;99.90;;;;;;5065097;28;20659;-80
2022/11/01 06:16:08;;;;;;;5.57;2.72;;;17.50;99.90;;;;;;5060645;28;20225;-80
2022/11/01 06:18:35;;;;;;;5.78;2.60;;;17.50;99.90;;;;;;5076665;28;20208;-80
2022/11/01 06:21:03;;;;;;;4.35;2.97;;;17.50;99.90;;;;;;5080140;28;20647;-80
2022/11/01 06:23:32;;;;;;;6.53;3.13;;;17.40;99.90;;;;;;5065011;28;20189;-80
2022/11/01 06:26:00;;;;;;;3.78;2.88;;;17.40;99.90;;;;;;5060728;28;20599;-80
2022/11/01 06:28:28;;;;;;;6.43;2.53;;;17.40;99.90;;;;;;5056832;28;20193;-79
2022/11/01 06:30:55;;;;;;;8.65;3.75;;;17.40;99.90;;;;;;5061568;28;20205;-80
2022/11/01 06:33:23;;;;;;;4.18;2.70;;;17.40;99.90;;;;;;5090607;28;20194;-80
2022/11/01 06:35:50;;;;;;;4.22;2.65;;;17.30;99.90;;;;;;5081129;28;20232;-79
2022/11/01 06:38:18;;;;;;;4.18;2.40;;;17.30;99.90;;;;;;5056106;28;20193;-79
2022/11/01 06:40:48;;;;;;;4.35;2.53;;;17.30;99.90;;;;;;5056991;28;20210;-79
2022/11/01 06:43:16;;;;;;;5.85;2.10;;;17.20;99.90;;;;;;5065933;28;20204;-80
2022/11/01 06:45:43;;;;;;;4.82;1.95;;;17.20;99.90;;;;;;5065877;28;20222;-79
2022/11/01 06:48:11;;;;;;;2.45;1.67;;;17.00;99.90;;;;;;5064420;28;20212;-80
2022/11/01 06:50:38;;;;;;;4.45;1.60;;;17.00;99.90;;;;;;5079071;28;20193;-79
2022/11/01 06:53:06;;;;;;;4.05;1.40;;;16.90;99.90;;;;;;5071627;28;20197;-79
2022/11/01 06:55:36;;;;;;;4.45;1.70;;;16.80;99.90;;;;;;5080701;28;20675;-79
2022/11/01 06:58:05;;;;;;;3.05;1.20;;;16.70;99.90;;;;;;5076564;28;20647;-80
2022/11/01 07:00:33;;;;;;;2.25;1.23;;;16.70;99.90;;;;;;5059798;28;20216;-80
2022/11/01 07:03:03;;;;;;;1.80;1.23;;;16.60;99.90;;;;;;5061829;28;20208;-79
2022/11/01 07:05:38;;;;;;;2.13;1.25;;;16.60;99.90;;;;;;5057314;28;20217;-80
2022/11/01 07:08:07;;;;;;;2.20;1.10;;;16.50;99.90;;;;;;5065860;28;20193;-80
2022/11/01 07:10:36;;;;;;;2.65;1.20;;;16.40;99.90;;;;;;5055499;28;20217;-80
2022/11/01 07:13:06;;;;;;;2.83;1.45;;;16.40;99.90;;;;;;5065645;28;20201;-80
2022/11/01 07:15:34;;;;;;;4.13;1.10;;;16.30;99.90;;;;;;5060268;28;20672;-80
2022/11/01 07:18:07;;;;;;;4.82;1.23;;;16.40;99.90;;;;;;5063665;28;20292;-79
2022/11/01 07:20:41;;;;;;;2.03;0.80;;;16.30;99.90;;;;;;5049009;28;20181;-80
2022/11/01 07:23:11;;;;;;;6.63;1.00;;;16.10;99.30;;;;;;5075923;28;20193;-79
2022/11/01 07:25:39;;;;;;;2.55;0.80;;;16.10;98.40;;;;;;5054114;28;20232;-79
2022/11/01 07:28:08;;;;;;;3.30;0.85;;;16.00;97.50;;;;;;5062481;28;20200;-80
2022/11/01 07:30:36;;;;;;;4.82;0.80;;;15.90;97.00;;;;;;5053702;28;20202;-79
2022/11/01 07:33:05;;;;;;;2.35;0.75;;;15.90;97.00;;;;;;5060512;28;20198;-80
2022/11/01 07:35:33;;;;;;;1.25;0.68;;;15.80;97.30;;;;;;5068462;28;20236;-79
2022/11/01 07:38:02;;;;;;;7.45;0.90;;;15.70;97.40;;;;;;5058988;28;20246;-79
2022/11/01 07:40:30;;;;;;;0.95;0.70;;;15.60;97.80;;;;;;5059295;28;20194;-79
2022/11/01 07:42:59;;;;;;;3.15;0.75;;;15.60;97.90;;;;;;5073092;28;20204;-79
2022/11/01 07:45:32;;;;;;;1.85;0.70;;;15.60;98.30;;;;;;5076493;28;20221;-78
2022/11/01 07:48:01;;;;;;;1.95;0.75;;;15.60;98.40;;;;;;5076560;28;20204;-79
2022/11/01 07:50:29;;;;;;;1.85;0.80;;;15.60;98.40;;;;;;5060353;28;20205;-79
2022/11/01 07:53:00;;;;;;;1.70;0.60;;;15.50;98.60;;;;;;5067445;28;20197;-79
2022/11/01 07:55:28;;;;;;;2.40;0.70;;;15.50;98.30;;;;;;5075917;28;20760;-79
2022/11/01 07:57:56;;;;;;;1.40;0.65;;;15.50;98.80;;;;;;5075841;28;20203;-78
2022/11/01 08:00:23;;;;;;;1.67;0.70;;;15.40;99.00;;;;;;5070953;28;20549;-79
2022/11/01 08:02:52;;;;;;;2.15;0.75;;;15.40;99.40;;;;;;5067485;28;20204;-79
2022/11/01 08:05:19;;;;;;;1.05;0.50;;;15.50;99.40;;;;;;5075577;28;20233;-79
2022/11/01 08:07:47;;;;;;;2.25;0.80;;;15.50;99.10;;;;;;5077029;28;20212;-79
2022/11/01 08:10:14;;;;;;;4.57;0.73;;;15.60;99.10;;;;;;5058458;28;20201;-79
2022/11/01 08:12:42;;;;;;;1.52;0.70;;;15.60;99.00;;;;;;5072345;28;20588;-79
2022/11/01 08:15:10;;;;;;;1.65;0.77;;;15.60;98.90;;;;;;5039626;28;20199;-79
2022/11/01 08:17:37;;;;;;;2.35;0.90;;;15.60;98.50;;;;;;5039833;28;20194;-79
2022/11/01 08:20:10;;;;;;;4.03;0.90;;;15.60;98.50;;;;;;5042213;28;20197;-78
2022/11/01 08:22:39;;;;;;;2.65;0.63;;;15.60;98.80;;;;;;5071408;28;20204;-78
2022/11/01 08:25:07;;;;;;;0.98;0.52;;;15.60;99.00;;;;;;5059081;28;20220;-78
2022/11/01 08:27:34;;;;;;;2.15;0.77;;;15.50;98.70;;;;;;5075372;28;20193;-79
2022/11/01 08:30:02;;;;;;;2.72;1.20;;;15.60;99.30;;;;;;5075728;28;20192;-78
2022/11/01 08:32:30;;;;;;;2.40;0.90;;;15.50;99.60;;;;;;5067384;28;20190;-79
2022/11/01 08:35:00;;;;;;;6.38;1.60;;;15.60;99.70;;;;;;5068597;28;20205;-79
2022/11/01 08:37:29;;;;;;;1.98;0.80;;;15.50;99.60;;;;;;5048352;28;20209;-79
2022/11/01 08:39:56;;;;;;;2.38;0.88;;;15.50;99.90;;;;;;5070955;28;20202;-79
2022/11/01 08:42:24;;;;;;;1.45;0.70;;;15.50;99.80;;;;;;5070090;28;20198;-79
2022/11/01 08:44:51;;;;;;;4.32;0.93;;;15.50;99.10;;;;;;5060931;28;20198;-78
2022/11/01 08:47:19;;;;;;;3.45;0.82;;;15.40;98.70;;;;;;5060008;28;20228;-78
2022/11/01 08:49:46;;;;;;;3.65;0.90;;;15.50;98.50;;;;;;5057114;28;20572;-79
2022/11/01 08:52:14;;;;;;;2.78;0.85;;;15.50;98.00;;;;;;5059316;28;20279;-78
2022/11/01 08:54:43;;;;;;;5.47;1.27;;;15.60;98.00;;;;;;5075919;28;20209;-79
2022/11/01 08:57:15;;;;;;;3.85;0.95;;;15.60;96.80;;;;;;5077753;28;20709;-79
2022/11/01 08:59:42;;;;;;;7.45;1.65;;;15.70;96.60;;;;;;5077302;28;20193;-79
2022/11/01 09:02:11;;;;;;;5.20;1.27;;;15.70;95.20;;;;;;5073101;28;20198;-79
2022/11/01 09:04:39;;;;;;;5.20;1.35;;;15.60;95.50;;;;;;5085397;28;20521;-79
2022/11/01 09:07:06;;;;;;;5.20;1.30;;;15.80;95.50;;;;;;5056067;28;20249;-79
2022/11/01 09:09:34;;;;;;;8.52;1.40;;;15.80;95.60;;;;;;5040637;28;20198;-79
2022/11/01 09:12:03;;;;;;;4.90;1.10;;;15.80;95.50;;;;;;5052836;28;20202;-79
2022/11/01 09:14:32;;;;;;;7.55;1.52;;;15.80;95.40;;;;;;5069439;28;20194;-78
2022/11/01 09:16:59;;;;;;;5.40;1.27;;;15.80;95.50;;;;;;5081843;28;20219;-78
2022/11/01 09:19:27;;;;;;;6.32;1.17;;;15.80;95.40;;;;;;5074455;28;20205;-78
2022/11/01 09:21:54;;;;;;;7.10;1.42;;;15.90;95.50;;;;;;5060246;28;20209;-78
2022/11/01 09:24:25;;;;;;;6.90;1.67;;;16.00;94.80;;;;;;5068675;28;20189;-80
2022/11/01 09:26:52;;;;;;;8.85;1.65;;;16.00;94.60;;;;;;5059023;28;20218;-78
2022/11/01 09:29:21;;;;;;;7.00;1.60;;;15.90;93.50;;;;;;5062125;28;20204;-78
2022/11/01 09:31:53;;;;;;;5.88;1.67;;;15.80;93.20;;;;;;5068366;28;20201;-78
2022/11/01 09:34:21;;;;;;;6.28;1.98;;;15.90;93.10;;;;;;5071008;28;20197;-78
2022/11/01 09:36:49;;;;;;;7.22;1.60;;;15.90;93.00;;;;;;5079210;28;20679;-79
2022/11/01 09:39:53;;;;;;;8.75;2.17;;;16.00;93.00;;;;;;5059768;28;20212;-78
2022/11/01 09:50:32;;;;;;;6.00;1.13;;;16.10;91.90;;;;;;5016848;28;20202;-81
2022/11/01 09:53:28;;;;;;;8.15;1.95;;;15.90;92.10;;;;;;5064586;28;20201;-82
2022/11/01 09:56:29;;;;;;;6.70;1.45;;;16.00;92.20;;;;;;5054325;28;20711;-82
2022/11/01 09:59:31;;;;;;;9.70;1.58;;;16.10;92.10;;;;;;5060905;28;20198;-82
2022/11/01 10:02:28;;;;;;;7.40;1.63;;;16.10;91.80;;;;;;5057117;28;20663;-81
2022/11/01 10:05:33;;;;;;;6.00;1.95;;;16.30;91.60;;;;;;5060701;28;20201;-81
2022/11/01 10:08:10;;;;;;;6.28;1.50;;;16.20;91.50;;;;;;5074295;28;20209;-79
2022/11/01 10:11:12;;;;;;;5.18;1.42;;;16.20;91.40;;;;;;5062172;28;20541;-79
2022/11/01 10:14:08;;;;;;;;;;;;;;;;;;;;;
2022/11/01 10:16:56;;;;;;;11.50;1.80;;;16.50;91.00;;;;;;5062741;28;20225;-81
2022/11/01 10:19:32;;;;;;;9.18;1.60;;;16.50;90.90;;;;;;5061318;28;20193;-81
2022/11/01 10:22:13;;;;;;;9.55;2.08;;;16.60;90.90;;;;;;5066193;28;20678;-80
2022/11/01 10:24:45;;;;;;;6.43;1.70;;;16.70;90.60;;;;;;5065168;28;20583;-80
2022/11/01 10:27:22;;;;;;;6.97;1.38;;;16.80;90.90;;;;;;5057381;28;20216;-79
2022/11/01 10:29:58;;;;;;;3.35;1.58;;;17.00;90.60;;;;;;5054339;28;20209;-80
2022/11/01 10:32:33;;;;;;;5.15;1.30;;;17.00;90.40;;;;;;5060337;28;20221;-80
2022/11/01 10:35:09;;;;;;;6.25;1.55;;;17.00;90.30;;;;;;5058582;28;20677;-81
2022/11/01 10:37:42;;;;;;;8.57;1.90;;;16.80;90.40;;;;;;5061610;28;20200;-80
2022/11/01 10:40:14;;;;;;;6.28;1.50;;;17.10;90.30;;;;;;5054405;28;20205;-80
2022/11/01 10:42:42;;;;;;;4.28;1.10;;;16.90;90.60;;;;;;5070050;28;20202;-80
2022/11/01 10:45:15;;;;;;;5.03;1.75;;;17.20;90.30;;;;;;5065773;28;20208;-79
2022/11/01 10:47:44;;;;;;;5.00;1.48;;;17.40;90.10;;;;;;5064740;28;20574;-80
2022/11/01 10:50:18;;;;;;;6.93;2.28;;;17.50;90.40;;;;;;5071614;28;20197;-80
2022/11/01 10:52:50;;;;;;;6.57;1.88;;;17.60;89.60;;;;;;5059838;28;20312;-79
2022/11/01 10:55:29;;;;;;;5.85;1.77;;;17.80;89.50;;;;;;5056011;28;20240;-77
2022/11/01 10:58:00;;;;;;;5.15;1.20;;;18.00;89.50;;;;;;5055155;28;20204;-79
2022/11/01 11:00:29;;;;;;;4.97;1.40;;;17.80;88.50;;;;;;5051112;28;20670;-78
2022/11/01 11:02:59;;;;;;;5.13;1.48;;;17.80;88.20;;;;;;5071798;28;20193;-80
2022/11/01 11:05:31;;;;;;;7.35;1.55;;;18.00;88.50;;;;;;5068368;28;20223;-80
2022/11/01 11:08:03;;;;;;;5.90;1.85;;;17.90;87.70;;;;;;5067313;28;20220;-83
2022/11/01 11:10:30;;;;;;;5.63;1.60;;;17.80;88.00;;;;;;5066052;28;20209;-82
2022/11/01 11:13:01;;;;;;;5.72;1.52;;;17.80;88.70;;;;;;5067593;28;20208;-82
2022/11/01 11:15:38;;;;;;;6.28;1.27;;;17.80;88.10;;;;;;5061479;28;20226;-81
2022/11/01 11:18:13;;;;;;;7.32;1.75;;;18.00;87.80;;;;;;5068912;28;20199;-81
2022/11/01 11:20:42;;;;;;;6.90;1.50;;;18.10;88.40;;;;;;5065932;28;20687;-81
2022/11/01 11:23:11;;;;;;;6.22;1.25;;;18.10;87.00;;;;;;5065305;28;20202;-81
2022/11/01 11:25:40;;;;;;;6.00;1.73;;;17.90;87.40;;;;;;5077582;28;20580;-82
2022/11/01 11:28:21;;;;;;;6.15;1.58;;;18.10;87.70;;;;;;5063619;28;20213;-80
2022/11/01 11:30:48;;;;;;;5.38;1.58;;;18.10;86.90;;;;;;5078218;28;20197;-80
2022/11/01 11:33:18;;;;;;;5.03;1.58;;;18.30;86.40;;;;;;5064722;28;20711;-79
2022/11/01 11:35:56;;;;;;;8.55;1.70;;;18.30;85.70;;;;;;5064631;28;20232;-79
2022/11/01 11:38:42;;;;;;;7.38;1.60;;;18.20;86.40;;;;;;5089749;28;20196;-82
2022/11/01 11:41:12;;;;;;;10.35;2.03;;;18.30;85.80;;;;;;5071499;28;20194;-80
2022/11/01 11:43:41;;;;;;;6.13;1.80;;;18.30;85.40;;;;;;5059399;28;20190;-79
2022/11/01 11:46:20;;;;;;;5.18;1.42;;;18.10;85.30;;;;;;5066300;28;20245;-80
2022/11/01 11:48:49;;;;;;;5.00;1.60;;;18.30;85.00;;;;;;5054713;28;20201;-80
2022/11/01 11:51:23;;;;;;;7.88;1.70;;;18.50;84.80;;;;;;5077857;28;20193;-80
2022/11/01 11:54:17;;;;;;;7.07;1.63;;;18.40;84.80;;;;;;5073812;28;20206;-80
2022/11/01 11:56:45;;;;;;;8.55;2.25;;;18.60;84.00;;;;;;5071623;28;20229;-80
2022/11/01 11:59:21;;;;;;;5.40;1.45;;;18.80;83.90;;;;;;5082661;28;20208;-82
2022/11/01 12:01:49;;;;;;;7.20;1.73;;;18.90;83.20;;;;;;5062364;28;20200;-80
2022/11/01 12:04:17;;;;;;;6.03;1.85;;;19.10;82.90;;;;;;5068733;28;20209;-80
2022/11/01 12:06:46;;;;;;;6.53;1.75;;;19.00;81.30;;;;;;5082697;28;20217;-80
2022/11/01 12:09:38;;;;;;;5.72;1.48;;;19.20;79.70;;;;;;5065501;28;20196;-80
2022/11/01 12:12:07;;;;;;;7.13;1.70;;;18.90;80.40;;;;;;5074205;28;20197;-81
2022/11/01 12:14:38;;;;;;;3.95;1.50;;;18.70;79.90;;;;;;5068705;28;20194;-79
2022/11/01 12:17:24;;;;;;;5.65;1.42;;;18.90;79.50;;;;;;5068995;28;20221;-80
2022/11/01 12:19:59;;;;;;;7.13;1.88;;;18.90;80.40;;;;;;5059383;28;20918;-80
2022/11/01 12:22:29;;;;;;;5.85;1.55;;;18.90;79.80;;;;;;5055755;28;20193;-80
2022/11/01 12:25:02;;;;;;;2.88;1.48;;;19.20;79.80;;;;;;5065947;28;20198;-81
2022/11/01 12:27:32;;;;;;;7.25;1.33;;;18.70;80.50;;;;;;5059589;28;20584;-80
2022/11/01 12:30:07;;;;;;;7.22;1.75;;;18.80;79.80;;;;;;5065366;28;20198;-80
2022/11/01 12:32:43;;;;;;;8.60;2.20;;;19.10;80.80;;;;;;5068398;28;20197;-82
2022/11/01 12:35:20;;;;;;;3.30;1.50;;;19.10;78.70;;;;;;5076186;28;20199;-82
2022/11/01 12:37:59;;;;;;;4.68;1.30;;;19.20;78.60;;;;;;5069966;28;20197;-80
2022/11/01 12:40:30;;;;;;;9.95;2.42;;;20.00;77.50;;;;;;5063862;28;20198;-80
2022/11/01 12:43:09;;;;;;;7.53;1.77;;;19.90;76.50;;;;;;5068925;28;20205;-81
2022/11/01 12:45:46;;;;;;;10.85;2.25;;;20.20;76.40;;;;;;5064326;28;20213;-80
2022/11/01 12:48:21;;;;;;;8.80;1.75;;;20.60;74.10;;;;;;5068172;28;20677;-80
2022/11/01 12:50:52;;;;;;;7.28;1.58;;;20.50;73.50;;;;;;5073303;28;20203;-81
2022/11/01 12:53:25;;;;;;;5.22;1.52;;;20.60;71.30;;;;;;5063091;28;20213;-80
2022/11/01 12:55:53;;;;;;;6.07;1.52;;;20.20;71.50;;;;;;5080726;28;20224;-80
2022/11/01 12:58:25;;;;;;;5.07;1.27;;;19.60;73.10;;;;;;5075459;28;20205;-80
2022/11/01 13:01:08;;;;;;;4.18;1.45;;;20.10;73.00;;;;;;5064816;28;20201;-80
2022/11/01 13:03:49;;;;;;;4.10;1.42;;;19.70;72.40;;;;;;5074870;28;20190;-80
2022/11/01 13:06:38;;;;;;;5.43;1.42;;;19.70;73.50;;;;;;5060898;28;20527;-80
2022/11/01 13:09:15;;;;;;;4.38;1.33;;;19.70;72.80;;;;;;5068976;28;20214;-84
2022/11/01 13:11:50;;;;;;;5.68;1.48;;;19.80;73.00;;;;;;5046218;28;20206;-81
2022/11/01 13:14:40;;;;;;;5.93;1.23;;;19.90;72.20;;;;;;5082312;28;20227;-81
2022/11/01 13:17:16;;;;;;;6.25;1.77;;;19.80;73.00;;;;;;5054390;28;20232;-80
2022/11/01 13:19:50;;;;;;;9.00;1.65;;;19.70;72.40;;;;;;5066935;28;20641;-79
2022/11/01 13:22:23;;;;;;;7.70;1.60;;;19.50;73.20;;;;;;5048254;28;20206;-79
2022/11/01 13:24:57;;;;;;;8.02;1.30;;;19.50;73.50;;;;;;5053767;28;20680;-79
2022/11/01 13:27:33;;;;;;;7.10;1.70;;;20.00;73.10;;;;;;5070695;28;20217;-78